sensor_id;sensor_type;location;lat;lon;timestamp;temperature;humidity
40151;DHT22;25866;52.420;10.640;2023-08-17T00:00:11;19.70;99.90
40151;DHT22;25866;52.420;10.640;2023-08-17T00:02:40;19.80;99.90
40151;DHT22;25866;52.420;10.640;2023-08-17T00:05:06;19.80;99.90
40151;DHT22;25866;52.420;10.640;2023-08-17T00:07:33;19.80;99.90
40151;DHT22;25866;52.420;10.640;2023-08-17T00:10:01;19.80;99.90
40151;DHT22;25866;52.420;10.640;2023-08-17T00:12:26;19.80;99.90
40151;DHT22;25866;52.420;10.640;2023-08-17T00:14:53;19.90;99.90
40151;DHT22;25866;52.420;10.640;2023-08-17T00:17:19;19.80;99.90
40151;DHT22;25866;52.420;10.640;2023-08-17T00:19:58;19.90;99.90
40151;DHT22;25866;52.420;10.640;2023-08-17T00:22:24;19.80;99.90
40151;DHT22;25866;52.420;10.640;2023-08-17T00:24:49;19.80;99.90
40151;DHT22;25866;52.420;10.640;2023-08-17T00:27:15;19.90;99.90
40151;DHT22;25866;52.420;10.640;2023-08-17T00:29:41;19.90;99.90
40151;DHT22;25866;52.420;10.640;2023-08-17T00:32:06;19.80;99.90
40151;DHT22;25866;52.420;10.640;2023-08-17T00:34:32;19.80;99.90
40151;DHT22;25866;52.420;10.640;2023-08-17T00:36:58;19.80;99.90
40151;DHT22;25866;52.420;10.640;2023-08-17T00:39:34;19.80;99.90
40151;DHT22;25866;52.420;10.640;2023-08-17T00:42:00;19.80;99.90
40151;DHT22;25866;52.420;10.640;2023-08-17T00:44:25;19.70;99.90
40151;DHT22;25866;52.420;10.640;2023-08-17T00:46:51;19.70;99.90
40151;DHT22;25866;52.420;10.640;2023-08-17T00:49:19;19.80;99.90
40151;DHT22;25866;52.420;10.640;2023-08-17T00:51:45;19.80;99.90
40151;DHT22;25866;52.420;10.640;2023-08-17T00:54:11;19.70;99.90
40151;DHT22;25866;52.420;10.640;2023-08-17T00:56:37;19.80;99.90
40151;DHT22;25866;52.420;10.640;2023-08-17T00:59:05;19.70;99.90
40151;DHT22;25866;52.420;10.640;2023-08-17T01:01:31;19.70;99.90
40151;DHT22;25866;52.420;10.640;2023-08-17T01:03:57;19.60;99.90
40151;DHT22;25866;52.420;10.640;2023-08-17T01:06:22;19.60;99.90
40151;DHT22;25866;52.420;10.640;2023-08-17T01:08:56;19.50;99.90
40151;DHT22;25866;52.420;10.640;2023-08-17T01:11:36;19.50;99.90
40151;DHT22;25866;52.420;10.640;2023-08-17T01:14:17;19.60;99.90
40151;DHT22;25866;52.420;10.640;2023-08-17T01:17:06;19.60;99.90
40151;DHT22;25866;52.420;10.640;2023-08-17T01:19:37;19.60;99.90
40151;DHT22;25866;52.420;10.640;2023-08-17T01:22:06;19.60;99.90
40151;DHT22;25866;52.420;10.640;2023-08-17T01:24:34;19.60;99.90
40151;DHT22;25866;52.420;10.640;2023-08-17T01:27:00;19.60;99.90
40151;DHT22;25866;52.420;10.640;2023-08-17T01:29:35;19.60;99.90
40151;DHT22;25866;52.420;10.640;2023-08-17T01:32:18;19.60;99.90
40151;DHT22;25866;52.420;10.640;2023-08-17T01:34:50;19.60;99.90
40151;DHT22;25866;52.420;10.640;2023-08-17T01:37:20;19.60;99.90
40151;DHT22;25866;52.420;10.640;2023-08-17T01:39:52;19.50;99.90
40151;DHT22;25866;52.420;10.640;2023-08-17T01:42:21;19.40;99.90
40151;DHT22;25866;52.420;10.640;2023-08-17T01:44:47;19.40;99.90
40151;DHT22;25866;52.420;10.640;2023-08-17T01:47:13;19.40;99.90
40151;DHT22;25866;52.420;10.640;2023-08-17T01:49:39;19.40;99.90
40151;DHT22;25866;52.420;10.640;2023-08-17T01:52:07;19.30;99.90
40151;DHT22;25866;52.420;10.640;2023-08-17T01:54:35;19.30;99.90
40151;DHT22;25866;52.420;10.640;2023-08-17T01:57:01;19.30;99.90
40151;DHT22;25866;52.420;10.640;2023-08-17T01:59:27;19.20;99.90
40151;DHT22;25866;52.420;10.640;2023-08-17T02:01:54;19.20;99.90
40151;DHT22;25866;52.420;10.640;2023-08-17T02:04:20;19.10;99.90
40151;DHT22;25866;52.420;10.640;2023-08-17T02:06:46;19.00;99.90
40151;DHT22;25866;52.420;10.640;2023-08-17T02:09:11;18.90;99.90
40151;DHT22;25866;52.420;10.640;2023-08-17T02:11:39;18.80;99.90
40151;DHT22;25866;52.420;10.640;2023-08-17T02:14:05;18.80;99.90
40151;DHT22;25866;52.420;10.640;2023-08-17T02:16:30;18.80;99.90
40151;DHT22;25866;52.420;10.640;2023-08-17T02:18:56;18.80;99.90
40151;DHT22;25866;52.420;10.640;2023-08-17T02:21:22;18.70;99.90
40151;DHT22;25866;52.420;10.640;2023-08-17T02:23:48;18.70;99.90
40151;DHT22;25866;52.420;10.640;2023-08-17T02:26:13;18.70;99.90
40151;DHT22;25866;52.420;10.640;2023-08-17T02:28:39;18.70;99.90
40151;DHT22;25866;52.420;10.640;2023-08-17T02:31:05;18.60;99.90
40151;DHT22;25866;52.420;10.640;2023-08-17T02:33:50;18.70;99.90
40151;DHT22;25866;52.420;10.640;2023-08-17T02:36:15;18.80;99.90
40151;DHT22;25866;52.420;10.640;2023-08-17T02:38:41;18.80;99.90
40151;DHT22;25866;52.420;10.640;2023-08-17T02:41:07;18.80;99.90
40151;DHT22;25866;52.420;10.640;2023-08-17T02:43:49;18.80;99.90
40151;DHT22;25866;52.420;10.640;2023-08-17T02:46:15;18.90;99.90
40151;DHT22;25866;52.420;10.640;2023-08-17T02:48:41;18.80;99.90
40151;DHT22;25866;52.420;10.640;2023-08-17T02:51:06;18.90;99.90
40151;DHT22;25866;52.420;10.640;2023-08-17T02:53:34;18.90;99.90
40151;DHT22;25866;52.420;10.640;2023-08-17T02:56:00;18.80;99.90
40151;DHT22;25866;52.420;10.640;2023-08-17T02:58:26;18.80;99.90
40151;DHT22;25866;52.420;10.640;2023-08-17T03:00:52;18.80;99.90
40151;DHT22;25866;52.420;10.640;2023-08-17T03:03:19;18.70;99.90
40151;DHT22;25866;52.420;10.640;2023-08-17T03:05:45;18.80;99.90
40151;DHT22;25866;52.420;10.640;2023-08-17T03:08:11;18.80;99.90
40151;DHT22;25866;52.420;10.640;2023-08-17T03:10:37;18.70;99.90
40151;DHT22;25866;52.420;10.640;2023-08-17T03:13:06;18.70;99.90
40151;DHT22;25866;52.420;10.640;2023-08-17T03:15:33;18.70;99.90
40151;DHT22;25866;52.420;10.640;2023-08-17T03:18:01;18.70;99.90
40151;DHT22;25866;52.420;10.640;2023-08-17T03:20:26;18.70;99.90
40151;DHT22;25866;52.420;10.640;2023-08-17T03:23:00;18.70;99.90
40151;DHT22;25866;52.420;10.640;2023-08-17T03:25:26;18.60;99.90
40151;DHT22;25866;52.420;10.640;2023-08-17T03:27:52;18.60;99.90
40151;DHT22;25866;52.420;10.640;2023-08-17T03:30:17;18.70;99.90
40151;DHT22;25866;52.420;10.640;2023-08-17T03:32:45;18.60;99.90
40151;DHT22;25866;52.420;10.640;2023-08-17T03:35:11;18.60;99.90
40151;DHT22;25866;52.420;10.640;2023-08-17T03:37:39;18.60;99.90
40151;DHT22;25866;52.420;10.640;2023-08-17T03:40:06;18.60;99.90
40151;DHT22;25866;52.420;10.640;2023-08-17T03:42:33;18.60;99.90
40151;DHT22;25866;52.420;10.640;2023-08-17T03:44:59;18.60;99.90
40151;DHT22;25866;52.420;10.640;2023-08-17T03:47:26;18.50;99.90
40151;DHT22;25866;52.420;10.640;2023-08-17T03:49:52;18.50;99.90
40151;DHT22;25866;52.420;10.640;2023-08-17T03:52:20;18.50;99.90
40151;DHT22;25866;52.420;10.640;2023-08-17T03:54:47;18.50;99.90
40151;DHT22;25866;52.420;10.640;2023-08-17T03:57:12;18.50;99.90
40151;DHT22;25866;52.420;10.640;2023-08-17T03:59:40;18.50;99.90
40151;DHT22;25866;52.420;10.640;2023-08-17T04:02:06;18.50;99.90
40151;DHT22;25866;52.420;10.640;2023-08-17T04:04:32;18.50;99.90
40151;DHT22;25866;52.420;10.640;2023-08-17T04:06:57;18.50;99.90
40151;DHT22;25866;52.420;10.640;2023-08-17T04:09:23;18.50;99.90
40151;DHT22;25866;52.420;10.640;2023-08-17T04:11:49;18.50;99.90
40151;DHT22;25866;52.420;10.640;2023-08-17T04:14:16;18.50;99.90
40151;DHT22;25866;52.420;10.640;2023-08-17T04:16:41;18.50;99.90
40151;DHT22;25866;52.420;10.640;2023-08-17T04:19:07;18.40;99.90
40151;DHT22;25866;52.420;10.640;2023-08-17T04:21:33;18.40;99.90
40151;DHT22;25866;52.420;10.640;2023-08-17T04:24:03;18.40;99.90
40151;DHT22;25866;52.420;10.640;2023-08-17T04:26:28;18.40;99.90
40151;DHT22;25866;52.420;10.640;2023-08-17T04:28:54;18.40;99.90
40151;DHT22;25866;52.420;10.640;2023-08-17T04:31:20;18.50;99.90
40151;DHT22;25866;52.420;10.640;2023-08-17T04:33:55;18.50;99.90
40151;DHT22;25866;52.420;10.640;2023-08-17T04:36:22;18.50;99.90
40151;DHT22;25866;52.420;10.640;2023-08-17T04:38:47;18.50;99.90
40151;DHT22;25866;52.420;10.640;2023-08-17T04:41:13;18.60;99.90
40151;DHT22;25866;52.420;10.640;2023-08-17T04:43:40;18.50;99.90
40151;DHT22;25866;52.420;10.640;2023-08-17T04:46:06;18.60;99.90
40151;DHT22;25866;52.420;10.640;2023-08-17T04:48:32;18.60;99.90
40151;DHT22;25866;52.420;10.640;2023-08-17T04:50:58;18.50;99.90
40151;DHT22;25866;52.420;10.640;2023-08-17T04:53:29;18.50;99.90
40151;DHT22;25866;52.420;10.640;2023-08-17T04:55:58;18.50;99.90
40151;DHT22;25866;52.420;10.640;2023-08-17T04:58:24;18.50;99.90
40151;DHT22;25866;52.420;10.640;2023-08-17T05:00:50;18.50;99.90
40151;DHT22;25866;52.420;10.640;2023-08-17T05:03:40;18.50;99.90
40151;DHT22;25866;52.420;10.640;2023-08-17T05:06:09;18.50;99.90
40151;DHT22;25866;52.420;10.640;2023-08-17T05:08:35;18.50;99.90
40151;DHT22;25866;52.420;10.640;2023-08-17T05:11:00;18.50;99.90
40151;DHT22;25866;52.420;10.640;2023-08-17T05:13:26;18.50;99.90
40151;DHT22;25866;52.420;10.640;2023-08-17T05:15:52;18.50;99.90
40151;DHT22;25866;52.420;10.640;2023-08-17T05:18:17;18.50;99.90
40151;DHT22;25866;52.420;10.640;2023-08-17T05:20:43;18.50;99.90
40151;DHT22;25866;52.420;10.640;2023-08-17T05:23:10;18.50;99.90
40151;DHT22;25866;52.420;10.640;2023-08-17T05:25:36;18.50;99.90
40151;DHT22;25866;52.420;10.640;2023-08-17T05:28:01;18.50;99.90
40151;DHT22;25866;52.420;10.640;2023-08-17T05:30:27;18.50;99.90
40151;DHT22;25866;52.420;10.640;2023-08-17T05:32:53;18.50;99.90
40151;DHT22;25866;52.420;10.640;2023-08-17T05:35:25;18.40;99.90
40151;DHT22;25866;52.420;10.640;2023-08-17T05:37:51;18.50;99.90
40151;DHT22;25866;52.420;10.640;2023-08-17T05:40:17;18.50;99.90
40151;DHT22;25866;52.420;10.640;2023-08-17T05:42:43;18.50;99.90
40151;DHT22;25866;52.420;10.640;2023-08-17T05:45:10;18.50;99.90
40151;DHT22;25866;52.420;10.640;2023-08-17T05:47:35;18.50;99.90
40151;DHT22;25866;52.420;10.640;2023-08-17T05:50:01;18.50;99.90
40151;DHT22;25866;52.420;10.640;2023-08-17T05:52:27;18.50;99.90
40151;DHT22;25866;52.420;10.640;2023-08-17T05:54:55;18.50;99.90
40151;DHT22;25866;52.420;10.640;2023-08-17T05:57:20;18.50;99.90
40151;DHT22;25866;52.420;10.640;2023-08-17T05:59:46;18.40;99.90
40151;DHT22;25866;52.420;10.640;2023-08-17T06:02:12;18.40;99.90
40151;DHT22;25866;52.420;10.640;2023-08-17T06:04:38;18.40;99.90
40151;DHT22;25866;52.420;10.640;2023-08-17T06:07:04;18.40;99.90
40151;DHT22;25866;52.420;10.640;2023-08-17T06:09:30;18.30;99.90
40151;DHT22;25866;52.420;10.640;2023-08-17T06:11:55;18.30;99.90
40151;DHT22;25866;52.420;10.640;2023-08-17T06:14:24;18.30;99.90
40151;DHT22;25866;52.420;10.640;2023-08-17T06:16:50;18.20;99.90
40151;DHT22;25866;52.420;10.640;2023-08-17T06:19:16;18.20;99.90
40151;DHT22;25866;52.420;10.640;2023-08-17T06:21:41;18.20;99.90
40151;DHT22;25866;52.420;10.640;2023-08-17T06:24:09;18.20;99.90
40151;DHT22;25866;52.420;10.640;2023-08-17T06:26:35;18.20;99.90
40151;DHT22;25866;52.420;10.640;2023-08-17T06:29:00;18.10;99.90
40151;DHT22;25866;52.420;10.640;2023-08-17T06:31:26;18.10;99.90
40151;DHT22;25866;52.420;10.640;2023-08-17T06:33:54;18.10;99.90
40151;DHT22;25866;52.420;10.640;2023-08-17T06:36:20;18.10;99.90
40151;DHT22;25866;52.420;10.640;2023-08-17T06:38:46;18.10;99.90
40151;DHT22;25866;52.420;10.640;2023-08-17T06:41:11;18.10;99.90
40151;DHT22;25866;52.420;10.640;2023-08-17T06:43:37;18.00;99.90
40151;DHT22;25866;52.420;10.640;2023-08-17T06:46:04;18.00;99.90
40151;DHT22;25866;52.420;10.640;2023-08-17T06:48:29;18.00;99.90
40151;DHT22;25866;52.420;10.640;2023-08-17T06:50:57;18.00;99.90
40151;DHT22;25866;52.420;10.640;2023-08-17T06:53:22;18.00;99.90
40151;DHT22;25866;52.420;10.640;2023-08-17T06:55:49;18.00;99.90
40151;DHT22;25866;52.420;10.640;2023-08-17T06:58:25;18.00;99.90
40151;DHT22;25866;52.420;10.640;2023-08-17T07:00:51;18.00;99.90
40151;DHT22;25866;52.420;10.640;2023-08-17T07:03:17;18.00;99.90
40151;DHT22;25866;52.420;10.640;2023-08-17T07:05:56;18.00;99.90
40151;DHT22;25866;52.420;10.640;2023-08-17T07:08:22;17.90;99.90
40151;DHT22;25866;52.420;10.640;2023-08-17T07:10:48;18.00;99.90
40151;DHT22;25866;52.420;10.640;2023-08-17T07:13:13;18.00;99.90
40151;DHT22;25866;52.420;10.640;2023-08-17T07:15:47;18.00;99.90
40151;DHT22;25866;52.420;10.640;2023-08-17T07:18:13;18.00;99.90
40151;DHT22;25866;52.420;10.640;2023-08-17T07:20:39;18.00;99.90
40151;DHT22;25866;52.420;10.640;2023-08-17T07:23:04;18.00;99.90
40151;DHT22;25866;52.420;10.640;2023-08-17T07:25:30;18.00;99.90
40151;DHT22;25866;52.420;10.640;2023-08-17T07:27:56;18.00;99.90
40151;DHT22;25866;52.420;10.640;2023-08-17T07:30:22;18.00;99.90
40151;DHT22;25866;52.420;10.640;2023-08-17T07:32:48;18.00;99.90
40151;DHT22;25866;52.420;10.640;2023-08-17T07:35:14;18.10;99.90
40151;DHT22;25866;52.420;10.640;2023-08-17T07:37:40;18.10;99.90
40151;DHT22;25866;52.420;10.640;2023-08-17T07:40:06;18.10;99.90
40151;DHT22;25866;52.420;10.640;2023-08-17T07:42:33;18.10;99.90
40151;DHT22;25866;52.420;10.640;2023-08-17T07:44:59;18.10;99.90
40151;DHT22;25866;52.420;10.640;2023-08-17T07:47:24;18.10;99.90
40151;DHT22;25866;52.420;10.640;2023-08-17T07:49:50;18.20;99.90
40151;DHT22;25866;52.420;10.640;2023-08-17T07:52:16;18.10;99.90
40151;DHT22;25866;52.420;10.640;2023-08-17T07:54:41;18.20;99.90
40151;DHT22;25866;52.420;10.640;2023-08-17T07:57:07;18.20;99.90
40151;DHT22;25866;52.420;10.640;2023-08-17T07:59:33;18.10;99.90
40151;DHT22;25866;52.420;10.640;2023-08-17T08:01:58;18.10;99.90
40151;DHT22;25866;52.420;10.640;2023-08-17T08:04:24;18.10;99.90
40151;DHT22;25866;52.420;10.640;2023-08-17T08:06:52;18.10;99.90
40151;DHT22;25866;52.420;10.640;2023-08-17T08:09:17;18.20;99.90
40151;DHT22;25866;52.420;10.640;2023-08-17T08:11:43;18.10;99.90
40151;DHT22;25866;52.420;10.640;2023-08-17T08:14:09;18.20;99.90
40151;DHT22;25866;52.420;10.640;2023-08-17T08:16:35;18.20;99.90
40151;DHT22;25866;52.420;10.640;2023-08-17T08:19:00;18.20;99.90
40151;DHT22;25866;52.420;10.640;2023-08-17T08:21:26;18.20;99.90
40151;DHT22;25866;52.420;10.640;2023-08-17T08:23:53;18.20;99.90
40151;DHT22;25866;52.420;10.640;2023-08-17T08:26:18;18.20;99.90
40151;DHT22;25866;52.420;10.640;2023-08-17T08:28:44;18.20;99.90
40151;DHT22;25866;52.420;10.640;2023-08-17T08:31:10;18.20;99.90
40151;DHT22;25866;52.420;10.640;2023-08-17T08:33:36;18.20;99.90
40151;DHT22;25866;52.420;10.640;2023-08-17T08:36:02;18.30;99.90
40151;DHT22;25866;52.420;10.640;2023-08-17T08:38:27;18.30;99.90
40151;DHT22;25866;52.420;10.640;2023-08-17T08:40:54;18.30;99.90
40151;DHT22;25866;52.420;10.640;2023-08-17T08:43:20;18.20;99.90
40151;DHT22;25866;52.420;10.640;2023-08-17T08:45:47;18.30;99.90
40151;DHT22;25866;52.420;10.640;2023-08-17T08:48:13;18.20;99.90
40151;DHT22;25866;52.420;10.640;2023-08-17T08:50:41;18.20;99.90
40151;DHT22;25866;52.420;10.640;2023-08-17T08:53:17;18.00;99.90
40151;DHT22;25866;52.420;10.640;2023-08-17T08:55:56;18.00;99.90
40151;DHT22;25866;52.420;10.640;2023-08-17T08:58:25;17.90;99.90
40151;DHT22;25866;52.420;10.640;2023-08-17T09:00:52;17.90;99.90
40151;DHT22;25866;52.420;10.640;2023-08-17T09:03:19;17.90;99.90
40151;DHT22;25866;52.420;10.640;2023-08-17T09:05:49;18.00;99.90
40151;DHT22;25866;52.420;10.640;2023-08-17T09:08:20;18.00;99.90
40151;DHT22;25866;52.420;10.640;2023-08-17T09:10:46;18.00;99.90
40151;DHT22;25866;52.420;10.640;2023-08-17T09:13:12;18.10;99.90
40151;DHT22;25866;52.420;10.640;2023-08-17T09:15:39;18.10;99.90
40151;DHT22;25866;52.420;10.640;2023-08-17T09:18:05;18.10;99.90
40151;DHT22;25866;52.420;10.640;2023-08-17T09:23:03;18.20;99.90
40151;DHT22;25866;52.420;10.640;2023-08-17T09:25:31;18.20;99.90
40151;DHT22;25866;52.420;10.640;2023-08-17T09:27:57;18.10;99.90
40151;DHT22;25866;52.420;10.640;2023-08-17T09:30:23;18.10;99.90
40151;DHT22;25866;52.420;10.640;2023-08-17T09:32:49;18.10;99.90
40151;DHT22;25866;52.420;10.640;2023-08-17T09:35:15;18.10;99.90
40151;DHT22;25866;52.420;10.640;2023-08-17T09:37:40;18.00;99.90
40151;DHT22;25866;52.420;10.640;2023-08-17T09:40:06;18.10;99.90
40151;DHT22;25866;52.420;10.640;2023-08-17T09:42:38;18.10;99.90
40151;DHT22;25866;52.420;10.640;2023-08-17T09:45:04;18.00;99.90
40151;DHT22;25866;52.420;10.640;2023-08-17T09:47:30;17.90;99.90
40151;DHT22;25866;52.420;10.640;2023-08-17T09:49:56;18.00;99.90
40151;DHT22;25866;52.420;10.640;2023-08-17T09:52:23;18.00;99.90
40151;DHT22;25866;52.420;10.640;2023-08-17T09:54:52;18.00;99.90
40151;DHT22;25866;52.420;10.640;2023-08-17T09:57:21;17.90;99.90
40151;DHT22;25866;52.420;10.640;2023-08-17T09:59:47;17.90;99.90
40151;DHT22;25866;52.420;10.640;2023-08-17T10:02:19;18.00;99.90
40151;DHT22;25866;52.420;10.640;2023-08-17T10:04:52;18.00;99.90
40151;DHT22;25866;52.420;10.640;2023-08-17T10:07:23;18.00;99.90
40151;DHT22;25866;52.420;10.640;2023-08-17T10:10:09;17.90;99.90
40151;DHT22;25866;52.420;10.640;2023-08-17T10:13:30;17.90;99.90
40151;DHT22;25866;52.420;10.640;2023-08-17T10:21:01;17.70;99.90
40151;DHT22;25866;52.420;10.640;2023-08-17T10:23:28;17.50;99.90
40151;DHT22;25866;52.420;10.640;2023-08-17T10:25:54;17.50;99.90
40151;DHT22;25866;52.420;10.640;2023-08-17T10:28:24;17.40;99.90
40151;DHT22;25866;52.420;10.640;2023-08-17T10:30:51;17.30;99.90
40151;DHT22;25866;52.420;10.640;2023-08-17T10:33:17;17.30;99.90
40151;DHT22;25866;52.420;10.640;2023-08-17T10:35:43;17.30;99.90
40151;DHT22;25866;52.420;10.640;2023-08-17T10:38:11;17.30;99.90
40151;DHT22;25866;52.420;10.640;2023-08-17T10:40:42;17.20;99.90
40151;DHT22;25866;52.420;10.640;2023-08-17T10:43:08;17.30;99.90
40151;DHT22;25866;52.420;10.640;2023-08-17T10:45:35;17.30;99.90
40151;DHT22;25866;52.420;10.640;2023-08-17T10:50:35;17.40;99.90
40151;DHT22;25866;52.420;10.640;2023-08-17T10:53:09;17.40;99.90
40151;DHT22;25866;52.420;10.640;2023-08-17T10:55:44;17.50;99.90
40151;DHT22;25866;52.420;10.640;2023-08-17T10:58:11;17.50;99.90
40151;DHT22;25866;52.420;10.640;2023-08-17T11:00:38;17.50;99.90
40151;DHT22;25866;52.420;10.640;2023-08-17T11:03:10;17.50;99.90
40151;DHT22;25866;52.420;10.640;2023-08-17T11:05:53;17.50;99.90
40151;DHT22;25866;52.420;10.640;2023-08-17T11:08:28;17.50;99.90
40151;DHT22;25866;52.420;10.640;2023-08-17T11:11:05;17.60;99.90
40151;DHT22;25866;52.420;10.640;2023-08-17T11:13:33;17.60;99.90
40151;DHT22;25866;52.420;10.640;2023-08-17T11:15:59;17.70;99.90
40151;DHT22;25866;52.420;10.640;2023-08-17T11:18:25;17.70;99.90
40151;DHT22;25866;52.420;10.640;2023-08-17T11:20:52;17.60;99.90
40151;DHT22;25866;52.420;10.640;2023-08-17T11:23:18;17.70;99.90
40151;DHT22;25866;52.420;10.640;2023-08-17T11:25:44;17.70;99.90
40151;DHT22;25866;52.420;10.640;2023-08-17T11:28:10;17.80;99.90
40151;DHT22;25866;52.420;10.640;2023-08-17T11:30:36;17.80;99.90
40151;DHT22;25866;52.420;10.640;2023-08-17T11:33:04;17.80;99.90
40151;DHT22;25866;52.420;10.640;2023-08-17T11:35:30;17.80;99.90
40151;DHT22;25866;52.420;10.640;2023-08-17T11:37:56;17.90;99.90
40151;DHT22;25866;52.420;10.640;2023-08-17T11:40:24;18.00;99.90
40151;DHT22;25866;52.420;10.640;2023-08-17T11:42:50;17.90;99.90
40151;DHT22;25866;52.420;10.640;2023-08-17T11:45:17;18.00;99.90
40151;DHT22;25866;52.420;10.640;2023-08-17T11:47:43;18.00;99.90
40151;DHT22;25866;52.420;10.640;2023-08-17T11:50:13;18.00;99.90
40151;DHT22;25866;52.420;10.640;2023-08-17T11:52:38;18.10;99.90
40151;DHT22;25866;52.420;10.640;2023-08-17T11:55:05;18.00;99.90
40151;DHT22;25866;52.420;10.640;2023-08-17T11:57:35;18.10;99.90
40151;DHT22;25866;52.420;10.640;2023-08-17T12:00:02;18.10;99.90
40151;DHT22;25866;52.420;10.640;2023-08-17T12:02:30;18.20;99.90
40151;DHT22;25866;52.420;10.640;2023-08-17T12:04:56;18.20;99.90
40151;DHT22;25866;52.420;10.640;2023-08-17T12:07:32;18.20;99.90
40151;DHT22;25866;52.420;10.640;2023-08-17T12:09:58;18.30;99.90
40151;DHT22;25866;52.420;10.640;2023-08-17T12:12:23;18.30;99.90
40151;DHT22;25866;52.420;10.640;2023-08-17T12:14:49;18.30;99.90
40151;DHT22;25866;52.420;10.640;2023-08-17T12:17:17;18.30;99.90
40151;DHT22;25866;52.420;10.640;2023-08-17T12:19:44;18.30;99.90
40151;DHT22;25866;52.420;10.640;2023-08-17T12:22:12;18.30;99.90
40151;DHT22;25866;52.420;10.640;2023-08-17T12:24:38;18.30;99.90
40151;DHT22;25866;52.420;10.640;2023-08-17T12:27:05;18.30;99.90
40151;DHT22;25866;52.420;10.640;2023-08-17T12:29:31;18.30;99.90
40151;DHT22;25866;52.420;10.640;2023-08-17T12:31:58;18.40;99.90
40151;DHT22;25866;52.420;10.640;2023-08-17T12:34:24;18.30;99.90
40151;DHT22;25866;52.420;10.640;2023-08-17T12:36:50;18.30;99.90
40151;DHT22;25866;52.420;10.640;2023-08-17T12:39:16;18.30;99.90
40151;DHT22;25866;52.420;10.640;2023-08-17T12:41:42;18.30;99.90
40151;DHT22;25866;52.420;10.640;2023-08-17T12:44:09;18.40;99.90
40151;DHT22;25866;52.420;10.640;2023-08-17T12:46:39;18.40;99.90
40151;DHT22;25866;52.420;10.640;2023-08-17T12:49:05;18.40;99.90
40151;DHT22;25866;52.420;10.640;2023-08-17T12:51:31;18.30;99.90
40151;DHT22;25866;52.420;10.640;2023-08-17T12:53:56;18.40;99.90
40151;DHT22;25866;52.420;10.640;2023-08-17T12:56:22;18.40;99.90
40151;DHT22;25866;52.420;10.640;2023-08-17T12:58:47;18.40;99.90
40151;DHT22;25866;52.420;10.640;2023-08-17T13:01:13;18.30;99.90
40151;DHT22;25866;52.420;10.640;2023-08-17T13:03:39;18.30;99.90
40151;DHT22;25866;52.420;10.640;2023-08-17T13:06:05;18.30;99.90
40151;DHT22;25866;52.420;10.640;2023-08-17T13:08:31;18.30;99.90
40151;DHT22;25866;52.420;10.640;2023-08-17T13:10:56;18.40;99.90
40151;DHT22;25866;52.420;10.640;2023-08-17T13:13:22;18.40;99.90
40151;DHT22;25866;52.420;10.640;2023-08-17T13:15:48;18.50;99.90
40151;DHT22;25866;52.420;10.640;2023-08-17T13:18:14;18.50;99.90
40151;DHT22;25866;52.420;10.640;2023-08-17T13:20:39;18.50;99.90
40151;DHT22;25866;52.420;10.640;2023-08-17T13:23:06;18.50;99.90
40151;DHT22;25866;52.420;10.640;2023-08-17T13:25:32;18.50;99.90
40151;DHT22;25866;52.420;10.640;2023-08-17T13:27:59;18.50;99.90
40151;DHT22;25866;52.420;10.640;2023-08-17T13:30:25;18.50;99.90
40151;DHT22;25866;52.420;10.640;2023-08-17T13:32:51;18.50;99.90
40151;DHT22;25866;52.420;10.640;2023-08-17T13:35:16;18.50;99.90
40151;DHT22;25866;52.420;10.640;2023-08-17T13:37:43;18.50;99.90
40151;DHT22;25866;52.420;10.640;2023-08-17T13:40:09;18.50;99.90
40151;DHT22;25866;52.420;10.640;2023-08-17T13:42:35;18.50;99.90
40151;DHT22;25866;52.420;10.640;2023-08-17T13:45:02;18.50;99.90
40151;DHT22;25866;52.420;10.640;2023-08-17T13:47:29;18.40;99.90
40151;DHT22;25866;52.420;10.640;2023-08-17T13:49:56;18.40;99.90
40151;DHT22;25866;52.420;10.640;2023-08-17T13:52:22;18.40;99.90
40151;DHT22;25866;52.420;10.640;2023-08-17T13:54:48;18.40;99.90
40151;DHT22;25866;52.420;10.640;2023-08-17T13:57:14;18.40;99.90
40151;DHT22;25866;52.420;10.640;2023-08-17T13:59:39;18.40;99.90
40151;DHT22;25866;52.420;10.640;2023-08-17T14:02:06;18.40;99.90
40151;DHT22;25866;52.420;10.640;2023-08-17T14:04:31;18.40;99.90
40151;DHT22;25866;52.420;10.640;2023-08-17T14:06:57;18.40;99.90
40151;DHT22;25866;52.420;10.640;2023-08-17T14:09:24;18.40;99.90
40151;DHT22;25866;52.420;10.640;2023-08-17T14:11:49;18.30;99.90
40151;DHT22;25866;52.420;10.640;2023-08-17T14:14:15;18.30;99.90
40151;DHT22;25866;52.420;10.640;2023-08-17T14:16:42;18.30;99.90
40151;DHT22;25866;52.420;10.640;2023-08-17T14:19:07;18.30;99.90
40151;DHT22;25866;52.420;10.640;2023-08-17T14:21:33;18.40;99.90
40151;DHT22;25866;52.420;10.640;2023-08-17T14:23:59;18.40;99.90
40151;DHT22;25866;52.420;10.640;2023-08-17T14:26:24;18.40;99.90
40151;DHT22;25866;52.420;10.640;2023-08-17T14:28:50;18.50;99.90
40151;DHT22;25866;52.420;10.640;2023-08-17T14:31:16;18.60;99.90
40151;DHT22;25866;52.420;10.640;2023-08-17T14:33:44;18.60;99.90
40151;DHT22;25866;52.420;10.640;2023-08-17T14:36:13;18.60;99.90
40151;DHT22;25866;52.420;10.640;2023-08-17T14:38:39;18.60;99.90
40151;DHT22;25866;52.420;10.640;2023-08-17T14:41:04;18.60;99.90
40151;DHT22;25866;52.420;10.640;2023-08-17T14:43:32;18.60;99.90
40151;DHT22;25866;52.420;10.640;2023-08-17T14:45:58;18.60;99.90
40151;DHT22;25866;52.420;10.640;2023-08-17T14:48:24;18.70;99.90
40151;DHT22;25866;52.420;10.640;2023-08-17T14:50:50;18.70;99.90
40151;DHT22;25866;52.420;10.640;2023-08-17T14:53:15;18.70;99.90
40151;DHT22;25866;52.420;10.640;2023-08-17T14:55:41;18.80;99.90
40151;DHT22;25866;52.420;10.640;2023-08-17T14:58:07;18.80;99.90
40151;DHT22;25866;52.420;10.640;2023-08-17T15:00:33;18.90;99.90
40151;DHT22;25866;52.420;10.640;2023-08-17T15:02:59;18.90;99.90
40151;DHT22;25866;52.420;10.640;2023-08-17T15:05:25;18.80;99.90
40151;DHT22;25866;52.420;10.640;2023-08-17T15:07:51;18.80;99.90
40151;DHT22;25866;52.420;10.640;2023-08-17T15:10:18;18.70;99.90
40151;DHT22;25866;52.420;10.640;2023-08-17T15:12:44;18.70;99.90
40151;DHT22;25866;52.420;10.640;2023-08-17T15:15:10;18.60;99.90
40151;DHT22;25866;52.420;10.640;2023-08-17T15:17:35;18.60;99.90
40151;DHT22;25866;52.420;10.640;2023-08-17T15:20:02;18.50;99.90
40151;DHT22;25866;52.420;10.640;2023-08-17T15:22:28;18.50;99.90
40151;DHT22;25866;52.420;10.640;2023-08-17T15:24:53;18.50;99.90